Newport Beach, CA (92660)

11:16 PM PDT on July 01, 2015 (GMT -0700)
Upper Newport Bay - W6IT | | Change Station
CLOSE
Current Station
Personal Weather Station
Location: Newport Beach, CA
Elevation: 75 ft
Nearby Weather Stations

Elev 75 ft 33.65 °N, 117.90 °W | Updated 19 seconds ago

Overcast
Overcast
68.3 °F
Feels Like 68.3 °F
N
2.0
Wind Variable Wind from SW
Gusts 3.0 mph

Today
High -- | Low -- °F
--% Chance of Precip.
Yesterday
High -- | Low -- °F
Precip. -- in
5:44 AM 8:05 PM
Full, 100% visible
Pressure 29.95 in
Visibility 9.0 miles
Clouds Overcast 17000 ft
Dew Point 66 °F
Humidity 91%
Rainfall 0.00 in
Snow Depth Not available.
UV 0 out of 12
Pollen 4.40 out of 12
Air Quality Not available.
Flu Activity Not available.
METAR KSNA 020553Z 00000KT 9SM OVC170 21/18 A2995 RMK AO2 SLP140 60000 T02060178 10244 20206 51011

More Conditions Fewer Conditions

Pressure 29.95 in
Visibility 9.0 miles
Clouds Overcast 17000 ft
Dew Point 66 °F
Humidity 91%
Rainfall 0.00 in
Snow Depth Not available.
UV 0 out of 12
Pollen 4.40 out of 12
Air Quality Not available.
Flu Activity Not available.
METAR KSNA 020553Z 00000KT 9SM OVC170 21/18 A2995 RMK AO2 SLP140 60000 T02060178 10244 20206 51011

More Conditions Fewer Conditions

10-Day Weather Forecast

×

Almanac

Astronomy

Jul. 01, 2015 Rise Set
Actual Time
Civil Twilight
Nautical Twilight
Astronomical Twilight
Moon
Length of Visible Light
Length of Day
Tomorrow will be .
, % of the Moon is Illuminated

Today's Extremes

State Highs State Lows

Community

WunderPhotos

Upload Photos

1,834,422 photos uploaded!

WunderBlogs® & News

Nearby

Air Quality

  Air Quality AQ Index Pollutant
Not available.

Snow Depth

Station Depth Elevation

Earthquake Activity

City Distance Mag. Time & Date
Minimum magnitude displayed is 2.5.

Coastal Water Temperatures

Place Temperature

Stations

Nearby Weather Stations

Station Location Temp. Windchill Dew Point Humidity Wind Precip. Elev Updated Type